sensor_id;sensor_type;location;lat;lon;timestamp;P1;durP1;ratioP1;P2;durP2;ratioP2
54787;SDS011;59598;48.112;16.280;2023-06-22T00:02:14;3.75;;;2.08;;
54787;SDS011;59598;48.112;16.280;2023-06-22T00:04:48;7.38;;;2.42;;
54787;SDS011;59598;48.112;16.280;2023-06-22T00:07:22;5.35;;;2.47;;
54787;SDS011;59598;48.112;16.280;2023-06-22T00:09:54;8.50;;;2.53;;
54787;SDS011;59598;48.112;16.280;2023-06-22T00:12:26;4.38;;;1.70;;
54787;SDS011;59598;48.112;16.280;2023-06-22T00:14:59;4.65;;;2.42;;
54787;SDS011;59598;48.112;16.280;2023-06-22T00:17:31;6.30;;;2.30;;
54787;SDS011;59598;48.112;16.280;2023-06-22T00:20:08;3.40;;;2.67;;
54787;SDS011;59598;48.112;16.280;2023-06-22T00:22:40;5.55;;;2.13;;
54787;SDS011;59598;48.112;16.280;2023-06-22T00:25:16;5.15;;;2.65;;
54787;SDS011;59598;48.112;16.280;2023-06-22T00:27:50;3.92;;;2.42;;
54787;SDS011;59598;48.112;16.280;2023-06-22T00:30:24;5.88;;;2.70;;
54787;SDS011;59598;48.112;16.280;2023-06-22T00:32:58;3.70;;;2.42;;
54787;SDS011;59598;48.112;16.280;2023-06-22T00:35:29;5.90;;;2.47;;
54787;SDS011;59598;48.112;16.280;2023-06-22T00:38:01;4.50;;;1.85;;
54787;SDS011;59598;48.112;16.280;2023-06-22T00:40:35;2.87;;;2.13;;
54787;SDS011;59598;48.112;16.280;2023-06-22T00:43:09;4.68;;;2.65;;
54787;SDS011;59598;48.112;16.280;2023-06-22T00:45:41;4.28;;;2.40;;
54787;SDS011;59598;48.112;16.280;2023-06-22T00:48:14;5.22;;;2.30;;
54787;SDS011;59598;48.112;16.280;2023-06-22T00:50:46;6.15;;;2.50;;
54787;SDS011;59598;48.112;16.280;2023-06-22T00:53:21;3.53;;;2.20;;
54787;SDS011;59598;48.112;16.280;2023-06-22T00:55:54;3.00;;;2.33;;
54787;SDS011;59598;48.112;16.280;2023-06-22T00:58:26;5.82;;;2.33;;
54787;SDS011;59598;48.112;16.280;2023-06-22T01:00:57;3.25;;;2.13;;
54787;SDS011;59598;48.112;16.280;2023-06-22T01:03:31;4.57;;;2.55;;
54787;SDS011;59598;48.112;16.280;2023-06-22T01:06:06;5.25;;;3.00;;
54787;SDS011;59598;48.112;16.280;2023-06-22T01:09:06;4.57;;;2.47;;
54787;SDS011;59598;48.112;16.280;2023-06-22T01:11:48;3.45;;;2.50;;
54787;SDS011;59598;48.112;16.280;2023-06-22T01:14:31;4.55;;;2.90;;
54787;SDS011;59598;48.112;16.280;2023-06-22T01:17:11;4.88;;;2.50;;
54787;SDS011;59598;48.112;16.280;2023-06-22T01:19:50;5.78;;;3.17;;
54787;SDS011;59598;48.112;16.280;2023-06-22T01:22:31;5.47;;;2.58;;
54787;SDS011;59598;48.112;16.280;2023-06-22T01:25:12;3.38;;;2.22;;
54787;SDS011;59598;48.112;16.280;2023-06-22T01:27:53;5.30;;;2.47;;
54787;SDS011;59598;48.112;16.280;2023-06-22T01:30:36;3.85;;;2.75;;
54787;SDS011;59598;48.112;16.280;2023-06-22T01:33:13;6.70;;;2.53;;
54787;SDS011;59598;48.112;16.280;2023-06-22T01:35:45;3.90;;;2.80;;
54787;SDS011;59598;48.112;16.280;2023-06-22T01:38:17;4.25;;;2.83;;
54787;SDS011;59598;48.112;16.280;2023-06-22T01:40:48;5.45;;;2.03;;
54787;SDS011;59598;48.112;16.280;2023-06-22T01:43:25;6.32;;;3.13;;
54787;SDS011;59598;48.112;16.280;2023-06-22T01:45:59;5.67;;;2.73;;
54787;SDS011;59598;48.112;16.280;2023-06-22T01:48:35;3.75;;;2.38;;
54787;SDS011;59598;48.112;16.280;2023-06-22T01:51:12;5.95;;;2.92;;
54787;SDS011;59598;48.112;16.280;2023-06-22T01:53:44;6.30;;;2.63;;
54787;SDS011;59598;48.112;16.280;2023-06-22T01:56:16;3.90;;;2.63;;
54787;SDS011;59598;48.112;16.280;2023-06-22T01:58:50;6.53;;;3.28;;
54787;SDS011;59598;48.112;16.280;2023-06-22T02:01:31;4.53;;;2.50;;
54787;SDS011;59598;48.112;16.280;2023-06-22T02:04:26;6.22;;;2.85;;
54787;SDS011;59598;48.112;16.280;2023-06-22T02:07:02;4.10;;;2.88;;
54787;SDS011;59598;48.112;16.280;2023-06-22T02:09:46;3.03;;;2.60;;
54787;SDS011;59598;48.112;16.280;2023-06-22T02:12:23;2.92;;;2.08;;
54787;SDS011;59598;48.112;16.280;2023-06-22T02:14:59;5.90;;;3.08;;
54787;SDS011;59598;48.112;16.280;2023-06-22T02:17:32;5.18;;;2.72;;
54787;SDS011;59598;48.112;16.280;2023-06-22T02:20:05;3.85;;;2.60;;
54787;SDS011;59598;48.112;16.280;2023-06-22T02:22:45;3.33;;;2.22;;
54787;SDS011;59598;48.112;16.280;2023-06-22T02:25:17;3.38;;;2.45;;
54787;SDS011;59598;48.112;16.280;2023-06-22T02:27:50;4.18;;;2.65;;
54787;SDS011;59598;48.112;16.280;2023-06-22T02:30:22;4.65;;;3.10;;
54787;SDS011;59598;48.112;16.280;2023-06-22T02:32:53;4.80;;;2.42;;
54787;SDS011;59598;48.112;16.280;2023-06-22T02:35:30;3.80;;;3.00;;
54787;SDS011;59598;48.112;16.280;2023-06-22T02:38:02;3.80;;;2.38;;
54787;SDS011;59598;48.112;16.280;2023-06-22T02:40:34;3.33;;;2.50;;
54787;SDS011;59598;48.112;16.280;2023-06-22T02:43:07;3.22;;;2.03;;
54787;SDS011;59598;48.112;16.280;2023-06-22T02:45:41;6.10;;;2.58;;
54787;SDS011;59598;48.112;16.280;2023-06-22T02:48:12;3.78;;;2.40;;
54787;SDS011;59598;48.112;16.280;2023-06-22T02:50:43;5.82;;;2.50;;
54787;SDS011;59598;48.112;16.280;2023-06-22T02:53:19;3.40;;;2.38;;
54787;SDS011;59598;48.112;16.280;2023-06-22T02:55:51;4.38;;;2.72;;
54787;SDS011;59598;48.112;16.280;2023-06-22T02:58:27;5.97;;;2.42;;
54787;SDS011;59598;48.112;16.280;2023-06-22T03:00:59;3.97;;;2.95;;
54787;SDS011;59598;48.112;16.280;2023-06-22T03:03:35;5.05;;;2.95;;
54787;SDS011;59598;48.112;16.280;2023-06-22T03:06:06;5.07;;;2.58;;
54787;SDS011;59598;48.112;16.280;2023-06-22T03:08:38;4.68;;;2.17;;
54787;SDS011;59598;48.112;16.280;2023-06-22T03:11:10;3.05;;;2.22;;
54787;SDS011;59598;48.112;16.280;2023-06-22T03:13:42;3.42;;;2.53;;
54787;SDS011;59598;48.112;16.280;2023-06-22T03:16:14;3.35;;;2.20;;
54787;SDS011;59598;48.112;16.280;2023-06-22T03:18:50;3.08;;;2.65;;
54787;SDS011;59598;48.112;16.280;2023-06-22T03:21:26;4.15;;;2.65;;
54787;SDS011;59598;48.112;16.280;2023-06-22T03:24:00;4.63;;;2.40;;
54787;SDS011;59598;48.112;16.280;2023-06-22T03:26:33;4.50;;;2.17;;
54787;SDS011;59598;48.112;16.280;2023-06-22T03:29:07;3.00;;;2.33;;
54787;SDS011;59598;48.112;16.280;2023-06-22T03:31:41;2.83;;;2.20;;
54787;SDS011;59598;48.112;16.280;2023-06-22T03:34:12;3.58;;;2.70;;
54787;SDS011;59598;48.112;16.280;2023-06-22T03:36:44;4.20;;;2.78;;
54787;SDS011;59598;48.112;16.280;2023-06-22T03:39:20;3.90;;;2.72;;
54787;SDS011;59598;48.112;16.280;2023-06-22T03:41:54;4.53;;;2.80;;
54787;SDS011;59598;48.112;16.280;2023-06-22T03:44:25;5.88;;;3.20;;
54787;SDS011;59598;48.112;16.280;2023-06-22T03:46:57;3.03;;;2.10;;
54787;SDS011;59598;48.112;16.280;2023-06-22T03:49:32;6.45;;;2.88;;
54787;SDS011;59598;48.112;16.280;2023-06-22T03:52:07;4.13;;;2.88;;
54787;SDS011;59598;48.112;16.280;2023-06-22T03:54:38;5.25;;;3.08;;
54787;SDS011;59598;48.112;16.280;2023-06-22T03:57:15;3.40;;;2.40;;
54787;SDS011;59598;48.112;16.280;2023-06-22T03:59:49;3.28;;;2.08;;
54787;SDS011;59598;48.112;16.280;2023-06-22T04:02:21;5.30;;;2.72;;
54787;SDS011;59598;48.112;16.280;2023-06-22T04:04:55;3.88;;;2.40;;
54787;SDS011;59598;48.112;16.280;2023-06-22T04:07:33;4.82;;;2.95;;
54787;SDS011;59598;48.112;16.280;2023-06-22T04:10:10;4.63;;;2.38;;
54787;SDS011;59598;48.112;16.280;2023-06-22T04:12:42;4.60;;;2.65;;
54787;SDS011;59598;48.112;16.280;2023-06-22T04:15:13;3.30;;;2.67;;
54787;SDS011;59598;48.112;16.280;2023-06-22T04:17:47;5.97;;;2.75;;
54787;SDS011;59598;48.112;16.280;2023-06-22T04:20:21;3.25;;;2.67;;
54787;SDS011;59598;48.112;16.280;2023-06-22T04:22:53;4.28;;;2.63;;
54787;SDS011;59598;48.112;16.280;2023-06-22T04:25:27;3.45;;;2.58;;
54787;SDS011;59598;48.112;16.280;2023-06-22T04:28:03;3.95;;;2.80;;
54787;SDS011;59598;48.112;16.280;2023-06-22T04:30:42;3.47;;;2.33;;
54787;SDS011;59598;48.112;16.280;2023-06-22T04:33:17;4.38;;;2.92;;
54787;SDS011;59598;48.112;16.280;2023-06-22T04:35:51;3.40;;;2.72;;
54787;SDS011;59598;48.112;16.280;2023-06-22T04:38:23;5.22;;;2.60;;
54787;SDS011;59598;48.112;16.280;2023-06-22T04:40:55;3.63;;;2.50;;
54787;SDS011;59598;48.112;16.280;2023-06-22T04:43:27;6.38;;;2.00;;
54787;SDS011;59598;48.112;16.280;2023-06-22T04:46:01;5.15;;;2.28;;
54787;SDS011;59598;48.112;16.280;2023-06-22T04:48:33;3.55;;;2.42;;
54787;SDS011;59598;48.112;16.280;2023-06-22T04:51:05;7.00;;;2.42;;
54787;SDS011;59598;48.112;16.280;2023-06-22T04:53:36;7.57;;;3.38;;
54787;SDS011;59598;48.112;16.280;2023-06-22T04:56:11;6.18;;;3.20;;
54787;SDS011;59598;48.112;16.280;2023-06-22T04:58:45;9.38;;;2.75;;
54787;SDS011;59598;48.112;16.280;2023-06-22T05:01:21;5.60;;;2.65;;
54787;SDS011;59598;48.112;16.280;2023-06-22T05:03:55;3.30;;;2.35;;
54787;SDS011;59598;48.112;16.280;2023-06-22T05:06:27;5.28;;;2.85;;
54787;SDS011;59598;48.112;16.280;2023-06-22T05:09:00;5.88;;;2.75;;
54787;SDS011;59598;48.112;16.280;2023-06-22T05:11:36;5.50;;;2.83;;
54787;SDS011;59598;48.112;16.280;2023-06-22T05:14:07;4.82;;;2.63;;
54787;SDS011;59598;48.112;16.280;2023-06-22T05:16:41;3.63;;;2.92;;
54787;SDS011;59598;48.112;16.280;2023-06-22T05:19:13;3.47;;;2.45;;
54787;SDS011;59598;48.112;16.280;2023-06-22T05:21:44;3.78;;;2.35;;
54787;SDS011;59598;48.112;16.280;2023-06-22T05:24:16;4.00;;;2.95;;
54787;SDS011;59598;48.112;16.280;2023-06-22T05:26:47;4.93;;;2.70;;
54787;SDS011;59598;48.112;16.280;2023-06-22T05:29:22;4.93;;;2.83;;
54787;SDS011;59598;48.112;16.280;2023-06-22T05:31:53;5.72;;;2.15;;
54787;SDS011;59598;48.112;16.280;2023-06-22T05:34:25;4.43;;;3.10;;
54787;SDS011;59598;48.112;16.280;2023-06-22T05:37:04;8.40;;;3.63;;
54787;SDS011;59598;48.112;16.280;2023-06-22T05:39:40;12.40;;;2.92;;
54787;SDS011;59598;48.112;16.280;2023-06-22T05:42:12;6.47;;;3.17;;
54787;SDS011;59598;48.112;16.280;2023-06-22T05:44:46;3.13;;;2.45;;
54787;SDS011;59598;48.112;16.280;2023-06-22T05:47:17;3.55;;;2.72;;
54787;SDS011;59598;48.112;16.280;2023-06-22T05:49:53;5.80;;;2.45;;
54787;SDS011;59598;48.112;16.280;2023-06-22T05:52:25;4.60;;;2.80;;
54787;SDS011;59598;48.112;16.280;2023-06-22T05:54:59;4.53;;;2.25;;
54787;SDS011;59598;48.112;16.280;2023-06-22T05:57:32;5.27;;;2.33;;
54787;SDS011;59598;48.112;16.280;2023-06-22T06:00:05;4.45;;;2.53;;
54787;SDS011;59598;48.112;16.280;2023-06-22T06:02:43;4.20;;;2.15;;
54787;SDS011;59598;48.112;16.280;2023-06-22T06:05:14;5.68;;;2.78;;
54787;SDS011;59598;48.112;16.280;2023-06-22T06:07:46;5.85;;;2.78;;
54787;SDS011;59598;48.112;16.280;2023-06-22T06:10:17;6.85;;;2.70;;
54787;SDS011;59598;48.112;16.280;2023-06-22T06:12:49;5.30;;;2.60;;
54787;SDS011;59598;48.112;16.280;2023-06-22T06:15:22;8.07;;;2.70;;
54787;SDS011;59598;48.112;16.280;2023-06-22T06:17:56;8.35;;;2.47;;
54787;SDS011;59598;48.112;16.280;2023-06-22T06:20:28;3.63;;;3.33;;
54787;SDS011;59598;48.112;16.280;2023-06-22T06:23:04;4.63;;;2.28;;
54787;SDS011;59598;48.112;16.280;2023-06-22T06:25:35;5.63;;;3.10;;
54787;SDS011;59598;48.112;16.280;2023-06-22T06:28:07;2.95;;;2.08;;
54787;SDS011;59598;48.112;16.280;2023-06-22T06:30:38;6.18;;;2.88;;
54787;SDS011;59598;48.112;16.280;2023-06-22T06:33:11;6.07;;;2.80;;
54787;SDS011;59598;48.112;16.280;2023-06-22T06:35:42;7.15;;;3.35;;
54787;SDS011;59598;48.112;16.280;2023-06-22T06:38:14;4.88;;;3.17;;
54787;SDS011;59598;48.112;16.280;2023-06-22T06:40:45;9.18;;;3.15;;
54787;SDS011;59598;48.112;16.280;2023-06-22T06:43:18;3.90;;;3.03;;
54787;SDS011;59598;48.112;16.280;2023-06-22T06:45:49;3.97;;;2.72;;
54787;SDS011;59598;48.112;16.280;2023-06-22T06:48:23;5.45;;;3.70;;
54787;SDS011;59598;48.112;16.280;2023-06-22T06:50:54;7.88;;;3.50;;
54787;SDS011;59598;48.112;16.280;2023-06-22T06:53:26;5.97;;;3.80;;
54787;SDS011;59598;48.112;16.280;2023-06-22T06:55:59;7.00;;;2.95;;
54787;SDS011;59598;48.112;16.280;2023-06-22T06:58:33;7.75;;;3.80;;
54787;SDS011;59598;48.112;16.280;2023-06-22T07:01:05;7.18;;;3.45;;
54787;SDS011;59598;48.112;16.280;2023-06-22T07:03:37;7.03;;;3.20;;
54787;SDS011;59598;48.112;16.280;2023-06-22T07:06:09;4.32;;;3.13;;
54787;SDS011;59598;48.112;16.280;2023-06-22T07:08:40;3.80;;;2.25;;
54787;SDS011;59598;48.112;16.280;2023-06-22T07:11:15;6.13;;;3.67;;
54787;SDS011;59598;48.112;16.280;2023-06-22T07:13:49;4.82;;;3.47;;
54787;SDS011;59598;48.112;16.280;2023-06-22T07:16:22;8.23;;;4.22;;
54787;SDS011;59598;48.112;16.280;2023-06-22T07:18:55;7.50;;;3.05;;
54787;SDS011;59598;48.112;16.280;2023-06-22T07:21:30;7.22;;;3.35;;
54787;SDS011;59598;48.112;16.280;2023-06-22T07:24:02;6.13;;;3.25;;
54787;SDS011;59598;48.112;16.280;2023-06-22T07:26:33;9.27;;;4.28;;
54787;SDS011;59598;48.112;16.280;2023-06-22T07:29:05;6.38;;;3.70;;
54787;SDS011;59598;48.112;16.280;2023-06-22T07:31:37;6.55;;;3.60;;
54787;SDS011;59598;48.112;16.280;2023-06-22T07:34:13;4.72;;;3.70;;
54787;SDS011;59598;48.112;16.280;2023-06-22T07:36:45;8.52;;;3.90;;
54787;SDS011;59598;48.112;16.280;2023-06-22T07:39:19;8.27;;;4.22;;
54787;SDS011;59598;48.112;16.280;2023-06-22T07:41:56;8.73;;;4.32;;
54787;SDS011;59598;48.112;16.280;2023-06-22T07:44:29;6.45;;;3.58;;
54787;SDS011;59598;48.112;16.280;2023-06-22T07:47:01;6.65;;;4.18;;
54787;SDS011;59598;48.112;16.280;2023-06-22T07:49:38;8.48;;;3.85;;
54787;SDS011;59598;48.112;16.280;2023-06-22T07:52:09;8.45;;;4.70;;
54787;SDS011;59598;48.112;16.280;2023-06-22T07:54:43;10.98;;;4.45;;
54787;SDS011;59598;48.112;16.280;2023-06-22T07:57:17;8.43;;;4.80;;
54787;SDS011;59598;48.112;16.280;2023-06-22T07:59:49;8.50;;;5.60;;
54787;SDS011;59598;48.112;16.280;2023-06-22T08:02:20;7.15;;;4.57;;
54787;SDS011;59598;48.112;16.280;2023-06-22T08:04:51;8.80;;;4.43;;
54787;SDS011;59598;48.112;16.280;2023-06-22T08:07:22;5.53;;;3.70;;
54787;SDS011;59598;48.112;16.280;2023-06-22T08:09:54;7.13;;;4.00;;
54787;SDS011;59598;48.112;16.280;2023-06-22T08:12:25;9.15;;;4.20;;
54787;SDS011;59598;48.112;16.280;2023-06-22T08:14:56;6.05;;;3.83;;
54787;SDS011;59598;48.112;16.280;2023-06-22T08:17:31;7.05;;;4.10;;
54787;SDS011;59598;48.112;16.280;2023-06-22T08:20:02;7.20;;;4.65;;
54787;SDS011;59598;48.112;16.280;2023-06-22T08:22:54;8.18;;;4.20;;
54787;SDS011;59598;48.112;16.280;2023-06-22T08:25:28;7.80;;;3.97;;
54787;SDS011;59598;48.112;16.280;2023-06-22T08:28:00;5.90;;;4.18;;
54787;SDS011;59598;48.112;16.280;2023-06-22T08:30:32;6.82;;;4.15;;
54787;SDS011;59598;48.112;16.280;2023-06-22T08:33:03;9.95;;;4.63;;
54787;SDS011;59598;48.112;16.280;2023-06-22T08:35:39;6.93;;;4.50;;
54787;SDS011;59598;48.112;16.280;2023-06-22T08:38:15;7.30;;;4.47;;
54787;SDS011;59598;48.112;16.280;2023-06-22T08:40:49;10.95;;;4.45;;
54787;SDS011;59598;48.112;16.280;2023-06-22T08:43:20;7.35;;;4.70;;
54787;SDS011;59598;48.112;16.280;2023-06-22T08:45:51;6.00;;;4.13;;
54787;SDS011;59598;48.112;16.280;2023-06-22T08:48:22;6.22;;;4.10;;
54787;SDS011;59598;48.112;16.280;2023-06-22T08:50:54;6.03;;;4.28;;
54787;SDS011;59598;48.112;16.280;2023-06-22T08:53:25;7.07;;;3.75;;
54787;SDS011;59598;48.112;16.280;2023-06-22T08:55:56;5.93;;;4.07;;
54787;SDS011;59598;48.112;16.280;2023-06-22T08:58:30;5.68;;;4.22;;
54787;SDS011;59598;48.112;16.280;2023-06-22T09:01:01;5.03;;;3.72;;
54787;SDS011;59598;48.112;16.280;2023-06-22T09:03:33;4.90;;;3.40;;
54787;SDS011;59598;48.112;16.280;2023-06-22T09:06:09;5.75;;;3.50;;
54787;SDS011;59598;48.112;16.280;2023-06-22T09:08:40;6.20;;;3.85;;
54787;SDS011;59598;48.112;16.280;2023-06-22T09:11:12;4.13;;;2.88;;
54787;SDS011;59598;48.112;16.280;2023-06-22T09:13:45;5.65;;;3.17;;
54787;SDS011;59598;48.112;16.280;2023-06-22T09:16:16;3.00;;;2.20;;
54787;SDS011;59598;48.112;16.280;2023-06-22T09:18:48;3.70;;;2.55;;
54787;SDS011;59598;48.112;16.280;2023-06-22T09:21:19;10.57;;;3.10;;
54787;SDS011;59598;48.112;16.280;2023-06-22T09:23:54;4.13;;;2.60;;
54787;SDS011;59598;48.112;16.280;2023-06-22T09:26:30;5.00;;;2.95;;
54787;SDS011;59598;48.112;16.280;2023-06-22T09:29:08;4.93;;;2.38;;
54787;SDS011;59598;48.112;16.280;2023-06-22T09:31:42;6.55;;;2.97;;
54787;SDS011;59598;48.112;16.280;2023-06-22T09:34:13;3.53;;;2.45;;
54787;SDS011;59598;48.112;16.280;2023-06-22T09:36:50;4.82;;;2.67;;
54787;SDS011;59598;48.112;16.280;2023-06-22T09:39:27;3.40;;;2.60;;
54787;SDS011;59598;48.112;16.280;2023-06-22T09:42:01;4.18;;;2.85;;
54787;SDS011;59598;48.112;16.280;2023-06-22T09:47:04;3.22;;;2.58;;
54787;SDS011;59598;48.112;16.280;2023-06-22T09:49:35;10.43;;;3.00;;
54787;SDS011;59598;48.112;16.280;2023-06-22T09:52:12;3.08;;;2.22;;
54787;SDS011;59598;48.112;16.280;2023-06-22T09:57:16;3.65;;;3.13;;
54787;SDS011;59598;48.112;16.280;2023-06-22T09:59:47;3.25;;;2.42;;
54787;SDS011;59598;48.112;16.280;2023-06-22T10:02:18;5.57;;;3.05;;
54787;SDS011;59598;48.112;16.280;2023-06-22T10:04:52;6.93;;;2.25;;
54787;SDS011;59598;48.112;16.280;2023-06-22T10:07:23;7.07;;;2.90;;
54787;SDS011;59598;48.112;16.280;2023-06-22T10:10:01;6.35;;;2.40;;
54787;SDS011;59598;48.112;16.280;2023-06-22T10:12:35;5.40;;;2.47;;
54787;SDS011;59598;48.112;16.280;2023-06-22T10:15:10;2.63;;;2.20;;
54787;SDS011;59598;48.112;16.280;2023-06-22T10:17:41;4.53;;;3.05;;
54787;SDS011;59598;48.112;16.280;2023-06-22T10:20:13;2.80;;;2.22;;
54787;SDS011;59598;48.112;16.280;2023-06-22T10:22:51;6.28;;;3.25;;
54787;SDS011;59598;48.112;16.280;2023-06-22T10:25:28;4.53;;;2.58;;
54787;SDS011;59598;48.112;16.280;2023-06-22T10:28:02;3.33;;;2.17;;
54787;SDS011;59598;48.112;16.280;2023-06-22T10:30:34;3.20;;;2.28;;
54787;SDS011;59598;48.112;16.280;2023-06-22T10:33:05;2.72;;;2.13;;
54787;SDS011;59598;48.112;16.280;2023-06-22T10:35:39;2.70;;;1.80;;
54787;SDS011;59598;48.112;16.280;2023-06-22T10:38:12;2.50;;;2.08;;
54787;SDS011;59598;48.112;16.280;2023-06-22T10:40:46;2.53;;;1.75;;
54787;SDS011;59598;48.112;16.280;2023-06-22T10:43:20;2.70;;;2.00;;
54787;SDS011;59598;48.112;16.280;2023-06-22T10:48:25;3.22;;;1.83;;
54787;SDS011;59598;48.112;16.280;2023-06-22T10:50:57;2.22;;;1.83;;
54787;SDS011;59598;48.112;16.280;2023-06-22T10:53:29;3.22;;;1.77;;
54787;SDS011;59598;48.112;16.280;2023-06-22T10:56:00;3.10;;;2.00;;
54787;SDS011;59598;48.112;16.280;2023-06-22T10:58:31;3.50;;;2.15;;
54787;SDS011;59598;48.112;16.280;2023-06-22T11:01:05;3.33;;;2.53;;
54787;SDS011;59598;48.112;16.280;2023-06-22T11:03:36;2.25;;;2.05;;
54787;SDS011;59598;48.112;16.280;2023-06-22T11:06:10;2.53;;;2.25;;
54787;SDS011;59598;48.112;16.280;2023-06-22T11:08:43;7.20;;;2.55;;
54787;SDS011;59598;48.112;16.280;2023-06-22T11:11:20;6.15;;;2.17;;
54787;SDS011;59598;48.112;16.280;2023-06-22T11:13:52;5.07;;;3.20;;
54787;SDS011;59598;48.112;16.280;2023-06-22T11:16:23;2.45;;;1.98;;
54787;SDS011;59598;48.112;16.280;2023-06-22T11:18:55;2.90;;;2.60;;
54787;SDS011;59598;48.112;16.280;2023-06-22T11:21:29;3.72;;;2.42;;
54787;SDS011;59598;48.112;16.280;2023-06-22T11:24:00;4.55;;;2.22;;
54787;SDS011;59598;48.112;16.280;2023-06-22T11:29:05;5.70;;;2.92;;
54787;SDS011;59598;48.112;16.280;2023-06-22T11:31:36;3.85;;;2.72;;
54787;SDS011;59598;48.112;16.280;2023-06-22T11:34:11;3.85;;;2.55;;
54787;SDS011;59598;48.112;16.280;2023-06-22T11:39:18;3.58;;;2.20;;
54787;SDS011;59598;48.112;16.280;2023-06-22T11:41:52;5.57;;;2.30;;
54787;SDS011;59598;48.112;16.280;2023-06-22T11:44:25;3.72;;;2.53;;
54787;SDS011;59598;48.112;16.280;2023-06-22T11:46:57;3.65;;;2.00;;
54787;SDS011;59598;48.112;16.280;2023-06-22T11:49:28;2.90;;;2.30;;
54787;SDS011;59598;48.112;16.280;2023-06-22T11:52:03;5.38;;;2.60;;
54787;SDS011;59598;48.112;16.280;2023-06-22T11:57:12;4.28;;;2.47;;
54787;SDS011;59598;48.112;16.280;2023-06-22T11:59:46;5.05;;;2.30;;
54787;SDS011;59598;48.112;16.280;2023-06-22T12:02:23;2.80;;;2.45;;
54787;SDS011;59598;48.112;16.280;2023-06-22T12:04:55;4.40;;;2.33;;
54787;SDS011;59598;48.112;16.280;2023-06-22T12:07:26;6.35;;;2.90;;
54787;SDS011;59598;48.112;16.280;2023-06-22T12:10:01;2.40;;;2.20;;
54787;SDS011;59598;48.112;16.280;2023-06-22T12:12:32;5.10;;;2.47;;
54787;SDS011;59598;48.112;16.280;2023-06-22T12:15:04;3.75;;;2.33;;
54787;SDS011;59598;48.112;16.280;2023-06-22T12:17:37;2.25;;;1.90;;
54787;SDS011;59598;48.112;16.280;2023-06-22T12:20:09;3.92;;;2.72;;
54787;SDS011;59598;48.112;16.280;2023-06-22T12:22:43;3.80;;;2.75;;
54787;SDS011;59598;48.112;16.280;2023-06-22T12:25:14;2.63;;;2.42;;
54787;SDS011;59598;48.112;16.280;2023-06-22T12:27:45;2.92;;;2.30;;
54787;SDS011;59598;48.112;16.280;2023-06-22T12:30:17;4.25;;;2.60;;
54787;SDS011;59598;48.112;16.280;2023-06-22T12:32:48;2.70;;;2.50;;
54787;SDS011;59598;48.112;16.280;2023-06-22T12:35:20;3.15;;;2.67;;
54787;SDS011;59598;48.112;16.280;2023-06-22T12:37:51;2.80;;;2.20;;
54787;SDS011;59598;48.112;16.280;2023-06-22T12:40:23;4.13;;;2.78;;
54787;SDS011;59598;48.112;16.280;2023-06-22T12:42:55;6.07;;;2.40;;
54787;SDS011;59598;48.112;16.280;2023-06-22T12:45:26;6.85;;;2.70;;
54787;SDS011;59598;48.112;16.280;2023-06-22T12:47:59;5.30;;;2.80;;
54787;SDS011;59598;48.112;16.280;2023-06-22T12:50:33;3.22;;;2.53;;
54787;SDS011;59598;48.112;16.280;2023-06-22T12:53:04;3.30;;;2.65;;
54787;SDS011;59598;48.112;16.280;2023-06-22T12:58:09;2.40;;;2.20;;
54787;SDS011;59598;48.112;16.280;2023-06-22T13:00:40;4.32;;;2.33;;
54787;SDS011;59598;48.112;16.280;2023-06-22T13:03:12;4.20;;;3.03;;
54787;SDS011;59598;48.112;16.280;2023-06-22T13:05:43;3.83;;;2.95;;
54787;SDS011;59598;48.112;16.280;2023-06-22T13:08:14;4.35;;;3.00;;
54787;SDS011;59598;48.112;16.280;2023-06-22T13:10:46;2.92;;;2.40;;
54787;SDS011;59598;48.112;16.280;2023-06-22T13:13:19;3.67;;;2.75;;
54787;SDS011;59598;48.112;16.280;2023-06-22T13:15:51;3.33;;;2.72;;
54787;SDS011;59598;48.112;16.280;2023-06-22T13:18:28;4.38;;;2.72;;
54787;SDS011;59598;48.112;16.280;2023-06-22T13:21:02;2.83;;;2.63;;
54787;SDS011;59598;48.112;16.280;2023-06-22T13:23:34;4.68;;;2.92;;
54787;SDS011;59598;48.112;16.280;2023-06-22T13:26:10;3.22;;;2.50;;
54787;SDS011;59598;48.112;16.280;2023-06-22T13:28:42;2.88;;;2.58;;
54787;SDS011;59598;48.112;16.280;2023-06-22T13:31:13;6.85;;;3.25;;
54787;SDS011;59598;48.112;16.280;2023-06-22T13:33:47;5.75;;;2.72;;
54787;SDS011;59598;48.112;16.280;2023-06-22T13:36:19;3.72;;;2.72;;
54787;SDS011;59598;48.112;16.280;2023-06-22T13:38:50;4.47;;;2.67;;
54787;SDS011;59598;48.112;16.280;2023-06-22T13:41:22;3.53;;;2.65;;
54787;SDS011;59598;48.112;16.280;2023-06-22T13:43:54;4.38;;;3.03;;
54787;SDS011;59598;48.112;16.280;2023-06-22T13:46:26;8.20;;;3.10;;
54787;SDS011;59598;48.112;16.280;2023-06-22T13:48:59;3.60;;;2.65;;
54787;SDS011;59598;48.112;16.280;2023-06-22T13:51:33;3.63;;;2.50;;
54787;SDS011;59598;48.112;16.280;2023-06-22T13:54:08;4.68;;;3.05;;
54787;SDS011;59598;48.112;16.280;2023-06-22T13:56:40;6.05;;;3.17;;
54787;SDS011;59598;48.112;16.280;2023-06-22T13:59:13;5.88;;;3.50;;
54787;SDS011;59598;48.112;16.280;2023-06-22T14:01:46;4.07;;;2.80;;
54787;SDS011;59598;48.112;16.280;2023-06-22T14:04:17;5.05;;;2.90;;
54787;SDS011;59598;48.112;16.280;2023-06-22T14:06:49;3.70;;;3.35;;
54787;SDS011;59598;48.112;16.280;2023-06-22T14:09:20;5.35;;;3.20;;
54787;SDS011;59598;48.112;16.280;2023-06-22T14:11:53;5.57;;;3.22;;
54787;SDS011;59598;48.112;16.280;2023-06-22T14:16:57;4.40;;;3.50;;
54787;SDS011;59598;48.112;16.280;2023-06-22T14:19:31;3.20;;;2.90;;
54787;SDS011;59598;48.112;16.280;2023-06-22T14:22:02;3.45;;;3.00;;
54787;SDS011;59598;48.112;16.280;2023-06-22T14:24:34;4.20;;;3.10;;
54787;SDS011;59598;48.112;16.280;2023-06-22T14:27:08;3.83;;;2.90;;
54787;SDS011;59598;48.112;16.280;2023-06-22T14:29:40;5.97;;;3.03;;
54787;SDS011;59598;48.112;16.280;2023-06-22T14:32:13;5.38;;;3.92;;
54787;SDS011;59598;48.112;16.280;2023-06-22T14:34:44;6.30;;;3.25;;
54787;SDS011;59598;48.112;16.280;2023-06-22T14:37:15;4.82;;;3.25;;
54787;SDS011;59598;48.112;16.280;2023-06-22T14:39:47;4.53;;;3.05;;
54787;SDS011;59598;48.112;16.280;2023-06-22T14:42:18;5.28;;;3.42;;
54787;SDS011;59598;48.112;16.280;2023-06-22T14:44:50;4.55;;;3.50;;
54787;SDS011;59598;48.112;16.280;2023-06-22T14:47:22;6.50;;;2.95;;
54787;SDS011;59598;48.112;16.280;2023-06-22T14:49:54;3.90;;;2.97;;
54787;SDS011;59598;48.112;16.280;2023-06-22T14:52:26;3.85;;;2.85;;
54787;SDS011;59598;48.112;16.280;2023-06-22T14:54:58;5.75;;;3.13;;
54787;SDS011;59598;48.112;16.280;2023-06-22T14:57:29;4.90;;;3.13;;
54787;SDS011;59598;48.112;16.280;2023-06-22T15:00:05;4.00;;;3.58;;
54787;SDS011;59598;48.112;16.280;2023-06-22T15:02:38;5.65;;;2.95;;
54787;SDS011;59598;48.112;16.280;2023-06-22T15:05:12;11.97;;;4.00;;
54787;SDS011;59598;48.112;16.280;2023-06-22T15:07:45;5.90;;;3.35;;
54787;SDS011;59598;48.112;16.280;2023-06-22T15:10:16;8.18;;;3.03;;
54787;SDS011;59598;48.112;16.280;2023-06-22T15:12:48;4.65;;;3.47;;
54787;SDS011;59598;48.112;16.280;2023-06-22T15:15:19;5.03;;;3.13;;
54787;SDS011;59598;48.112;16.280;2023-06-22T15:17:50;3.75;;;2.85;;
54787;SDS011;59598;48.112;16.280;2023-06-22T15:20:22;4.03;;;3.28;;
54787;SDS011;59598;48.112;16.280;2023-06-22T15:22:53;3.50;;;3.20;;
54787;SDS011;59598;48.112;16.280;2023-06-22T15:25:25;4.80;;;3.25;;
54787;SDS011;59598;48.112;16.280;2023-06-22T15:27:56;5.82;;;3.17;;
54787;SDS011;59598;48.112;16.280;2023-06-22T15:30:28;3.97;;;2.70;;